createdAt,value
2024-02-21T00:02:19.607Z,2.63
2024-02-21T00:05:21.444Z,1.60
2024-02-21T00:08:23.265Z,1.90
2024-02-21T00:11:25.630Z,3.10
2024-02-21T00:14:27.412Z,1.92
2024-02-21T00:17:29.168Z,3.17
2024-02-21T00:20:31.819Z,2.05
2024-02-21T00:23:33.544Z,2.00
2024-02-21T00:26:35.279Z,2.83
2024-02-21T00:29:37.183Z,1.98
2024-02-21T00:32:38.981Z,2.05
2024-02-21T00:35:40.759Z,1.90
2024-02-21T00:38:42.577Z,1.80
2024-02-21T00:41:44.556Z,2.88
2024-02-21T00:44:46.298Z,1.92
2024-02-21T00:47:48.156Z,2.15
2024-02-21T00:50:50.188Z,1.92
2024-02-21T00:53:51.877Z,1.80
2024-02-21T00:56:53.621Z,2.03
2024-02-21T00:59:55.485Z,2.38
2024-02-21T01:02:57.199Z,1.90
2024-02-21T01:05:59.094Z,1.80
2024-02-21T01:09:00.841Z,2.03
2024-02-21T01:12:04.013Z,2.10
2024-02-21T01:15:06.161Z,2.47
2024-02-21T01:18:07.985Z,2.55
2024-02-21T01:21:11.026Z,2.38
2024-02-21T01:24:12.854Z,1.83
2024-02-21T01:27:14.574Z,1.95
2024-02-21T01:30:16.650Z,2.17
2024-02-21T01:33:18.538Z,2.08
2024-02-21T01:36:20.333Z,3.00
2024-02-21T01:39:22.582Z,2.08
2024-02-21T01:42:24.628Z,1.83
2024-02-21T01:45:26.360Z,2.40
2024-02-21T01:48:28.293Z,2.28
2024-02-21T01:51:30.217Z,2.38
2024-02-21T01:54:32.228Z,1.83
2024-02-21T01:57:33.948Z,2.20
2024-02-21T02:00:35.824Z,2.22
2024-02-21T02:03:37.977Z,2.65
2024-02-21T02:06:39.751Z,2.08
2024-02-21T02:09:41.712Z,2.45
2024-02-21T02:12:43.649Z,1.88
2024-02-21T02:15:46.068Z,2.58
2024-02-21T02:21:57.627Z,3.70
2024-02-21T02:24:59.675Z,2.30
2024-02-21T02:28:01.385Z,2.72
2024-02-21T02:31:03.437Z,2.30
2024-02-21T02:34:05.342Z,1.70
2024-02-21T02:37:07.111Z,2.60
2024-02-21T02:40:09.576Z,2.38
2024-02-21T02:46:13.096Z,2.75
2024-02-21T02:49:15.039Z,2.13
2024-02-21T02:52:16.963Z,2.70
2024-02-21T02:55:18.812Z,2.38
2024-02-21T02:58:20.703Z,2.10
2024-02-21T03:01:23.768Z,2.08
2024-02-21T03:04:25.612Z,2.05
2024-02-21T03:07:27.869Z,2.15
2024-02-21T03:10:30.135Z,2.72
2024-02-21T03:13:31.974Z,2.10
2024-02-21T03:16:33.697Z,2.58
2024-02-21T03:19:35.717Z,2.40
2024-02-21T03:22:41.096Z,2.75
2024-02-21T03:25:43.040Z,2.10
2024-02-21T03:28:47.616Z,1.90
2024-02-21T03:31:50.894Z,1.52
2024-02-21T03:34:52.710Z,2.30
2024-02-21T03:37:54.860Z,2.15
2024-02-21T03:40:56.811Z,2.00
2024-02-21T03:43:58.608Z,2.35
2024-02-21T03:47:01.831Z,2.17
2024-02-21T03:50:05.863Z,2.00
2024-02-21T03:53:07.755Z,2.38
2024-02-21T03:56:09.523Z,1.52
2024-02-21T03:59:11.222Z,1.65
2024-02-21T04:02:13.057Z,1.88
2024-02-21T04:05:17.420Z,1.80
2024-02-21T04:08:19.282Z,1.90
2024-02-21T04:11:21.218Z,1.85
2024-02-21T04:14:22.934Z,1.52
2024-02-21T04:17:24.678Z,2.45
2024-02-21T04:20:26.688Z,1.60
2024-02-21T04:23:28.434Z,1.92
2024-02-21T04:26:30.189Z,2.05
2024-02-21T04:29:32.258Z,2.03
2024-02-21T04:32:34.062Z,1.80
2024-02-21T04:35:37.740Z,2.00
2024-02-21T04:38:40.254Z,1.90
2024-02-21T04:44:43.902Z,1.98
2024-02-21T04:47:45.754Z,1.83
2024-02-21T04:50:47.624Z,1.77
2024-02-21T04:53:49.370Z,1.40
2024-02-21T04:56:53.737Z,2.00
2024-02-21T04:59:56.017Z,2.72
2024-02-21T05:02:57.845Z,2.00
2024-02-21T05:06:00.574Z,1.63
2024-02-21T05:09:02.403Z,1.63
2024-02-21T05:12:05.459Z,1.95
2024-02-21T05:15:07.865Z,1.63
2024-02-21T05:18:09.695Z,2.20
2024-02-21T05:21:11.895Z,2.33
2024-02-21T05:24:13.657Z,1.83
2024-02-21T05:27:15.387Z,2.17
2024-02-21T05:30:17.416Z,2.00
2024-02-21T05:33:22.647Z,2.00
2024-02-21T05:36:24.627Z,1.50
2024-02-21T05:39:26.822Z,2.23
2024-02-21T05:42:28.528Z,1.58
2024-02-21T05:45:30.340Z,1.73
2024-02-21T05:48:34.244Z,1.63
2024-02-21T05:51:38.262Z,1.63
2024-02-21T05:54:40.980Z,1.77
2024-02-21T05:57:42.715Z,2.08
2024-02-21T06:00:45.572Z,1.53
2024-02-21T06:03:47.402Z,1.90
2024-02-21T06:06:49.154Z,2.08
2024-02-21T06:09:51.167Z,1.92
2024-02-21T06:12:52.962Z,1.60
2024-02-21T06:15:54.712Z,1.58
2024-02-21T06:18:56.450Z,1.90
2024-02-21T06:21:58.354Z,1.33
2024-02-21T06:25:00.522Z,1.50
2024-02-21T06:28:02.320Z,1.30
2024-02-21T06:31:04.306Z,1.83
2024-02-21T06:34:06.179Z,1.60
2024-02-21T06:37:07.941Z,1.30
2024-02-21T06:40:10.033Z,1.70
2024-02-21T06:43:11.752Z,1.50
2024-02-21T06:46:13.520Z,1.10
2024-02-21T06:49:18.222Z,1.53
2024-02-21T06:52:23.986Z,1.48
2024-02-21T06:55:25.766Z,1.40
2024-02-21T06:58:27.515Z,1.10
2024-02-21T07:01:31.326Z,1.50
2024-02-21T07:04:33.423Z,1.55
2024-02-21T07:07:36.387Z,1.10
2024-02-21T07:10:38.639Z,1.00
2024-02-21T07:13:40.470Z,1.83
2024-02-21T07:16:42.386Z,0.93
2024-02-21T07:19:44.469Z,1.38
2024-02-21T07:22:46.287Z,1.55
2024-02-21T07:25:48.103Z,1.30
2024-02-21T07:28:49.927Z,1.30
2024-02-21T07:31:53.073Z,1.35
2024-02-21T07:34:55.014Z,1.45
2024-02-21T07:37:56.927Z,1.40
2024-02-21T07:40:58.796Z,1.40
2024-02-21T07:44:01.084Z,1.27
2024-02-21T07:47:02.990Z,1.70
2024-02-21T07:50:06.348Z,1.85
2024-02-21T07:53:08.144Z,2.17
2024-02-21T07:56:10.482Z,1.90
2024-02-21T07:59:14.335Z,1.40
2024-02-21T08:02:16.363Z,1.42
2024-02-21T08:05:18.397Z,1.77
2024-02-21T08:08:22.612Z,1.40
2024-02-21T08:11:24.688Z,1.83
2024-02-21T08:14:26.486Z,1.70
2024-02-21T08:17:28.428Z,1.57
2024-02-21T08:20:30.393Z,1.50
2024-02-21T08:23:32.139Z,1.83
2024-02-21T08:26:33.948Z,1.70
2024-02-21T08:29:36.896Z,1.63
2024-02-21T08:32:38.961Z,1.67
2024-02-21T08:35:40.714Z,1.80
2024-02-21T08:38:42.417Z,2.08
2024-02-21T08:41:52.430Z,1.70
2024-02-21T08:44:58.966Z,2.10
2024-02-21T08:48:00.932Z,1.63
2024-02-21T08:51:03.034Z,1.75
2024-02-21T08:54:04.884Z,1.63
2024-02-21T08:57:06.600Z,1.92
2024-02-21T09:00:11.732Z,2.03
2024-02-21T09:03:13.472Z,1.38
2024-02-21T09:06:15.386Z,1.63
2024-02-21T09:09:18.138Z,1.55
2024-02-21T09:12:19.979Z,1.75
2024-02-21T09:15:21.745Z,1.83
2024-02-21T09:18:23.616Z,1.88
2024-02-21T09:21:25.545Z,1.58
2024-02-21T09:24:27.387Z,1.30
2024-02-21T09:27:29.424Z,1.30
2024-02-21T09:30:31.596Z,1.48
2024-02-21T09:33:33.721Z,1.38
2024-02-21T09:36:35.507Z,1.45
2024-02-21T09:39:37.376Z,1.77
2024-02-21T09:42:40.225Z,1.42
2024-02-21T09:45:41.996Z,1.10
2024-02-21T09:48:48.030Z,1.43
2024-02-21T09:51:51.131Z,1.30
2024-02-21T09:54:53.753Z,1.25
2024-02-21T09:57:55.508Z,1.30
2024-02-21T10:00:59.650Z,1.23
2024-02-21T10:04:01.436Z,1.80
2024-02-21T10:07:03.874Z,1.52
2024-02-21T10:10:06.299Z,1.10
2024-02-21T10:13:08.919Z,1.27
2024-02-21T10:16:10.915Z,1.88
2024-02-21T10:19:20.109Z,1.48
2024-02-21T10:22:22.234Z,1.10
2024-02-21T10:25:24.157Z,1.08
2024-02-21T10:28:25.934Z,1.40
2024-02-21T10:31:29.159Z,1.05
2024-02-21T10:34:31.113Z,1.10
2024-02-21T10:37:35.935Z,0.90
2024-02-21T10:40:37.975Z,1.10
2024-02-21T10:43:41.781Z,0.90
2024-02-21T10:46:43.817Z,1.10
2024-02-21T10:49:49.461Z,0.90
2024-02-21T10:52:59.037Z,1.17
2024-02-21T10:56:08.365Z,0.90
2024-02-21T10:59:10.781Z,1.02
2024-02-21T11:02:12.744Z,0.90
2024-02-21T11:05:14.798Z,1.10
2024-02-21T11:08:16.621Z,1.08
2024-02-21T11:11:27.693Z,0.90
2024-02-21T11:14:40.603Z,1.00
2024-02-21T11:17:47.677Z,1.00
2024-02-21T11:20:52.719Z,0.93
2024-02-21T11:23:58.723Z,0.98
2024-02-21T11:27:16.945Z,0.90
2024-02-21T11:30:23.674Z,1.10
2024-02-21T11:33:25.470Z,0.95
2024-02-21T11:36:27.721Z,0.95
2024-02-21T11:39:29.633Z,0.88
2024-02-21T11:42:31.632Z,0.80
2024-02-21T11:45:34.222Z,1.10
2024-02-21T11:51:37.967Z,0.80
2024-02-21T11:54:39.664Z,0.90
2024-02-21T11:57:44.333Z,0.80
2024-02-21T12:00:46.671Z,0.80
2024-02-21T12:03:50.687Z,0.80
2024-02-21T12:06:56.184Z,0.70
2024-02-21T12:10:01.591Z,0.90
2024-02-21T12:13:08.466Z,0.90
2024-02-21T12:16:10.398Z,0.90
2024-02-21T12:19:14.009Z,0.82
2024-02-21T12:22:21.986Z,0.90
2024-02-21T12:25:24.662Z,0.60
2024-02-21T12:28:27.203Z,1.05
2024-02-21T12:34:43.373Z,0.90
2024-02-21T12:37:50.772Z,0.70
2024-02-21T12:40:52.624Z,0.95
2024-02-21T12:43:54.749Z,0.63
2024-02-21T12:46:56.630Z,0.90
2024-02-21T12:49:58.834Z,0.70
2024-02-21T12:53:01.050Z,0.90
2024-02-21T12:56:02.962Z,0.90
2024-02-21T12:59:04.844Z,0.70
2024-02-21T13:02:07.325Z,0.80
2024-02-21T13:08:11.325Z,0.73
2024-02-21T13:11:13.665Z,0.90
2024-02-21T13:17:17.981Z,0.68
2024-02-21T13:20:20.098Z,0.80
2024-02-21T13:23:24.566Z,0.80
2024-02-21T13:26:26.821Z,0.80
2024-02-21T13:29:29.794Z,0.77
2024-02-21T13:32:31.842Z,0.82
2024-02-21T13:35:33.657Z,0.90
2024-02-21T13:38:35.646Z,0.90
2024-02-21T13:41:37.617Z,0.75
2024-02-21T13:44:39.412Z,0.88
2024-02-21T13:47:41.179Z,0.77
2024-02-21T13:50:44.793Z,0.88
2024-02-21T13:53:46.680Z,0.80
2024-02-21T13:56:48.398Z,0.90
2024-02-21T13:59:50.501Z,1.05
2024-02-21T14:02:52.235Z,0.85
2024-02-21T14:05:54.014Z,1.00
2024-02-21T14:08:56.187Z,0.90
2024-02-21T14:11:58.190Z,0.73
2024-02-21T14:14:59.945Z,0.73
2024-02-21T14:18:01.793Z,0.90
2024-02-21T14:21:03.830Z,0.75
2024-02-21T14:24:06.718Z,0.93
2024-02-21T14:27:09.921Z,0.77
2024-02-21T14:30:13.105Z,0.80
2024-02-21T14:33:14.867Z,0.98
2024-02-21T14:36:16.679Z,0.93
2024-02-21T14:39:18.603Z,1.10
2024-02-21T14:42:20.328Z,0.93
2024-02-21T14:45:24.014Z,0.82
2024-02-21T14:48:27.283Z,0.90
2024-02-21T14:51:32.052Z,1.13
2024-02-21T14:54:33.889Z,0.80
2024-02-21T14:57:37.371Z,0.80
2024-02-21T15:00:39.908Z,0.70
2024-02-21T15:03:41.727Z,0.85
2024-02-21T15:06:46.175Z,0.85
2024-02-21T15:09:48.060Z,0.90
2024-02-21T15:12:49.882Z,0.70
2024-02-21T15:15:52.633Z,0.80
2024-02-21T15:18:54.455Z,0.88
2024-02-21T15:21:56.370Z,1.00
2024-02-21T15:24:58.089Z,0.90
2024-02-21T15:28:00.395Z,0.80
2024-02-21T15:34:04.018Z,0.90
2024-02-21T15:37:05.841Z,0.90
2024-02-21T15:40:09.401Z,1.10
2024-02-21T15:43:11.431Z,0.85
2024-02-21T15:46:13.953Z,0.95
2024-02-21T15:49:15.933Z,0.95
2024-02-21T15:52:17.715Z,0.80
2024-02-21T15:55:20.768Z,0.95
2024-02-21T15:58:23.921Z,0.90
2024-02-21T16:01:25.981Z,1.10
2024-02-21T16:04:32.618Z,0.93
2024-02-21T16:07:35.155Z,1.20
2024-02-21T16:13:38.726Z,1.00
2024-02-21T16:16:41.482Z,0.85
2024-02-21T16:19:43.617Z,0.88
2024-02-21T16:22:46.245Z,1.10
2024-02-21T16:25:49.507Z,0.90
2024-02-21T16:28:51.458Z,1.08
2024-02-21T16:31:54.095Z,1.00
2024-02-21T16:34:56.064Z,0.90
2024-02-21T16:37:57.979Z,1.15
2024-02-21T16:41:01.046Z,0.93
2024-02-21T16:44:03.132Z,0.95
2024-02-21T16:47:08.021Z,0.90
2024-02-21T16:50:10.166Z,0.90
2024-02-21T16:53:11.958Z,1.00
2024-02-21T16:56:14.122Z,1.10
2024-02-21T16:59:16.062Z,0.80
2024-02-21T17:02:17.927Z,1.13
2024-02-21T17:05:21.477Z,1.13
2024-02-21T17:08:23.370Z,0.90
2024-02-21T17:11:25.201Z,1.05
2024-02-21T17:14:27.098Z,1.02
2024-02-21T17:17:28.875Z,0.98
2024-02-21T17:20:30.952Z,1.05
2024-02-21T17:23:32.708Z,1.00
2024-02-21T17:26:34.534Z,1.08
2024-02-21T17:29:36.535Z,1.92
2024-02-21T17:32:38.432Z,1.15
2024-02-21T17:35:41.671Z,1.27
2024-02-21T17:38:43.477Z,1.15
2024-02-21T17:41:46.124Z,1.10
2024-02-21T17:44:48.832Z,1.85
2024-02-21T17:47:52.465Z,1.40
2024-02-21T17:50:54.463Z,1.10
2024-02-21T17:53:56.941Z,1.20
2024-02-21T17:57:01.592Z,1.05
2024-02-21T18:00:05.448Z,1.10
2024-02-21T18:06:12.076Z,1.00
2024-02-21T18:09:14.939Z,1.10
2024-02-21T18:12:17.052Z,1.00
2024-02-21T18:15:18.875Z,1.05
2024-02-21T18:18:20.712Z,1.30
2024-02-21T18:21:23.372Z,1.00
2024-02-21T18:24:26.156Z,1.17
2024-02-21T18:27:28.877Z,1.10
2024-02-21T18:30:30.689Z,1.15
2024-02-21T18:33:32.420Z,1.20
2024-02-21T18:36:34.176Z,1.00
2024-02-21T18:39:35.996Z,1.17
2024-02-21T18:42:38.174Z,1.30
2024-02-21T18:45:39.890Z,1.45
2024-02-21T18:48:47.300Z,0.90
2024-02-21T18:51:50.245Z,1.00
2024-02-21T18:54:51.985Z,1.10
2024-02-21T18:57:53.759Z,1.25
2024-02-21T19:00:55.916Z,1.75
2024-02-21T19:03:58.030Z,1.30
2024-02-21T19:06:59.808Z,1.20
2024-02-21T19:10:01.969Z,1.50
2024-02-21T19:13:03.823Z,1.27
2024-02-21T19:16:06.587Z,1.40
2024-02-21T19:19:08.361Z,1.60
2024-02-21T19:22:10.133Z,1.30
2024-02-21T19:25:18.135Z,1.75
2024-02-21T19:28:22.288Z,2.08
2024-02-21T19:31:25.189Z,1.60
2024-02-21T19:34:29.040Z,1.67
2024-02-21T19:37:32.038Z,2.30
2024-02-21T19:40:34.149Z,1.27
2024-02-21T19:43:36.115Z,1.80
2024-02-21T19:46:38.988Z,2.15
2024-02-21T19:49:41.662Z,1.88
2024-02-21T19:52:43.481Z,1.75
2024-02-21T19:55:45.368Z,1.70
2024-02-21T19:58:47.218Z,1.67
2024-02-21T20:01:49.317Z,1.55
2024-02-21T20:04:51.167Z,2.38
2024-02-21T20:07:53.025Z,2.10
2024-02-21T20:10:56.162Z,1.50
2024-02-21T20:13:58.527Z,1.58
2024-02-21T20:20:04.137Z,1.85
2024-02-21T20:23:07.469Z,2.00
2024-02-21T20:26:09.470Z,1.67
2024-02-21T20:29:17.003Z,1.90
2024-02-21T20:32:18.804Z,1.75
2024-02-21T20:35:21.479Z,2.38
2024-02-21T20:38:23.706Z,1.77
2024-02-21T20:41:25.726Z,2.35
2024-02-21T20:44:28.270Z,1.75
2024-02-21T20:47:30.147Z,1.73
2024-02-21T20:50:33.117Z,2.05
2024-02-21T20:53:34.929Z,1.77
2024-02-21T20:56:37.327Z,1.90
2024-02-21T21:02:42.012Z,1.85
2024-02-21T21:05:44.313Z,2.22
2024-02-21T21:08:46.765Z,2.25
2024-02-21T21:14:50.505Z,1.93
2024-02-21T21:17:53.325Z,1.63
2024-02-21T21:20:55.314Z,1.88
2024-02-21T21:23:57.164Z,1.58
2024-02-21T21:26:59.010Z,1.58
2024-02-21T21:30:00.902Z,1.77
2024-02-21T21:33:05.358Z,1.95
2024-02-21T21:36:08.046Z,1.98
2024-02-21T21:39:09.896Z,1.50
2024-02-21T21:42:11.695Z,2.10
2024-02-21T21:45:14.320Z,1.73
2024-02-21T21:48:16.349Z,1.50
2024-02-21T21:51:18.256Z,2.42
2024-02-21T21:54:20.072Z,1.70
2024-02-21T21:57:21.854Z,1.70
2024-02-21T22:00:23.892Z,1.83
2024-02-21T22:03:25.643Z,1.80
2024-02-21T22:06:27.552Z,1.40
2024-02-21T22:09:29.493Z,1.40
2024-02-21T22:12:31.708Z,1.83
2024-02-21T22:15:33.818Z,1.83
2024-02-21T22:18:35.646Z,1.73
2024-02-21T22:21:37.665Z,1.58
2024-02-21T22:24:39.434Z,1.67
2024-02-21T22:27:41.145Z,1.45
2024-02-21T22:30:43.403Z,1.60
2024-02-21T22:33:45.212Z,2.13
2024-02-21T22:36:47.310Z,1.95
2024-02-21T22:39:49.705Z,1.48
2024-02-21T22:45:54.148Z,1.92
2024-02-21T22:48:55.897Z,2.33
2024-02-21T22:51:58.981Z,1.88
2024-02-21T22:55:01.338Z,1.73
2024-02-21T22:58:03.205Z,1.58
2024-02-21T23:03:44.468Z,2.08
2024-02-21T23:06:47.148Z,2.10
2024-02-21T23:09:48.927Z,2.45
2024-02-21T23:12:50.489Z,2.05
2024-02-21T23:15:52.533Z,1.90
2024-02-21T23:18:54.328Z,1.85
2024-02-21T23:21:56.095Z,2.55
2024-02-21T23:24:57.723Z,1.73
2024-02-21T23:27:59.344Z,1.70
2024-02-21T23:31:00.992Z,1.87
2024-02-21T23:34:02.835Z,1.87
2024-02-21T23:37:04.716Z,2.05
2024-02-21T23:40:07.556Z,1.92
2024-02-21T23:43:09.126Z,2.15
2024-02-21T23:46:10.693Z,2.50
2024-02-21T23:49:12.437Z,2.20
2024-02-21T23:52:14.960Z,2.17
2024-02-21T23:58:18.137Z,3.80
